CDT,Max TemperatureF,Mean TemperatureF,Min TemperatureF,Max Dew PointF,MeanDew PointF,Min DewpointF,Max Humidity, Mean Humidity, Min Humidity, Max Sea Level PressureIn, Mean Sea Level PressureIn, Min Sea Level PressureIn, Max VisibilityMiles, Mean VisibilityMiles, Min VisibilityMiles, Max Wind SpeedMPH, Mean Wind SpeedMPH, Max Gust SpeedMPH,PrecipitationIn, CloudCover, Events, WindDirDegrees
2013-7-1,82,71,60,59,55,50,82,50,35,30.21,30.18,30.17,10,10,7,13,5,16,0.00,0,,30
2013-7-2,80,68,55,55,52,45,88,59,32,30.19,30.14,30.07,10,10,7,8,3,,0.00,0,,29
2013-7-3,82,68,53,55,52,48,94,62,30,30.09,30.04,29.96,10,10,7,7,1,,0.00,0,,108
2013-7-4,87,71,55,61,56,52,94,59,31,29.97,29.91,29.85,10,10,7,14,4,21,0.00,0,,151
2013-7-5,87,78,68,64,59,54,68,52,35,29.89,29.84,29.79,10,10,10,20,10,26,0.00,1,,163
2013-7-6,80,76,71,72,65,61,94,71,54,29.87,29.85,29.81,10,10,7,12,7,17,0.00,1,,136
2013-7-7,89,78,68,72,67,64,94,71,52,29.91,29.85,29.81,10,10,5,15,5,26,0.00,1,,180
2013-7-8,82,70,57,68,63,57,100,81,54,30.03,29.98,29.92,10,8,0,9,4,,0.00,4,,37
2013-7-9,84,75,66,70,66,61,94,78,54,29.98,29.86,29.73,10,9,4,18,6,24,0.02,3,Rain,212
2013-7-10,78,68,57,59,55,52,94,65,39,30.06,30.03,29.95,10,10,7,15,9,21,0.00,0,,294
2013-7-11,82,66,51,61,55,52,100,64,35,30.12,30.06,29.98,10,8,0,13,3,18,0.00,0,,156
2013-7-12,87,78,68,63,59,55,64,52,40,30.00,29.95,29.87,10,10,10,23,11,29,0.00,0,,158
2013-7-13,78,72,66,70,65,57,94,77,51,30.07,30.00,29.93,10,10,2,20,10,29,1.44,6,Rain-Thunderstorm,153
2013-7-14,82,75,68,70,64,57,88,70,51,30.20,30.13,30.06,10,10,10,12,6,16,0.00,4,,157
2013-7-15,86,75,64,66,65,63,94,71,45,30.24,30.21,30.17,10,9,2,14,3,17,0.00,1,,167
2013-7-16,89,80,71,70,68,64,94,68,43,30.22,30.18,30.16,10,10,7,10,4,17,0.00,1,,194
2013-7-17,91,80,69,72,67,64,88,66,43,30.24,30.20,30.11,10,10,10,13,4,18,0.00,0,,214
2013-7-18,91,82,73,72,69,64,89,64,41,30.11,29.92,29.74,10,10,7,21,7,29,0.00,0,,194
2013-7-19,82,74,64,70,62,55,94,62,39,29.91,29.82,29.72,10,10,7,16,9,23,0.06,1,Rain-Thunderstorm,267
2013-7-20,75,68,60,61,56,52,100,69,44,29.98,29.94,29.89,10,10,5,8,3,,0.00,2,,27
2013-7-21,78,66,55,64,58,48,88,70,57,29.98,29.90,29.80,10,10,10,9,5,,0.00,2,,90
2013-7-22,84,74,64,70,62,54,94,71,40,29.86,29.75,29.68,10,10,7,16,8,24,0.00,3,,230
2013-7-23,73,63,53,55,52,48,94,66,43,30.04,29.98,29.88,10,10,10,12,6,17,0.00,1,,353
2013-7-24,78,66,53,57,54,52,94,71,39,30.09,30.03,29.96,10,10,5,6,1,,0.00,5,Rain,175
2013-7-25,78,68,57,63,60,55,94,75,47,29.99,29.94,29.90,10,10,7,15,4,20,0.01,2,Rain,243
2013-7-26,66,60,53,57,52,46,100,77,56,30.11,30.00,29.91,10,10,5,23,7,33,0.00,5,Rain,307
2013-7-27,60,54,48,50,47,45,93,75,55,30.11,30.02,29.95,10,10,4,17,8,25,0.00,6,Rain,313
2013-7-28,71,60,48,54,48,45,94,69,46,30.07,30.01,29.98,10,10,2,12,4,17,0.00,4,,322
2013-7-29,77,60,44,59,51,43,100,69,36,30.13,30.10,30.07,10,9,0,10,2,,0.00,2,Fog-Rain,161
2013-7-30,69,64,57,63,59,54,94,85,68,30.12,30.09,30.06,10,9,0,7,3,,0.02,7,Fog-Rain,152
2013-7-31,78,66,53,63,54,46,100,69,32,30.08,30.04,30.00,10,7,0,15,3,22,0.00,2,Fog,276